This is the latest recevied weather packets stored in our database for station/object HK6RM-16. If no packets are shown the sender has not sent any weather packets the latest 10 day(s).
| Time | Temp. | Humidity | Pressure | Rain* | Wind** | Luminosity | Snow |
|---|---|---|---|---|---|---|---|
| 1777925624 | 15.56° C | 78% | 1012 hPa | 0 mm | - | - | - |
| 1777924662 | 15.56° C | 78% | 1012 hPa | 0 mm | - | - | - |
| 1777923701 | 16.11° C | 78% | 1012 hPa | 0 mm | - | - | - |
| 1777922740 | 16.67° C | 78% | 1012 hPa | 0 mm | - | - | - |
| 1777921780 | 17.22° C | 78% | 1012 hPa | 0 mm | - | - | - |
| 1777920818 | 17.22° C | 78% | 1012 hPa | 0 mm | - | - | - |
| 1777919857 | 17.22° C | 78% | 1013 hPa | 0 mm | - | - | - |
| 1777918897 | 17.22° C | 78% | 1014 hPa | 0 mm | - | - | - |
| 1777917936 | 17.22° C | 79% | 1014 hPa | 0 mm | - | - | - |
| 1777916976 | 16.67° C | 83% | 1014 hPa | 0 mm | - | - | - |
| 1777916010 | 16.67° C | 84% | 1014 hPa | 0 mm | - | - | - |
| 1777915050 | 16.67° C | 85% | 1015 hPa | 0 mm | - | - | - |
| 1777914089 | 16.67° C | 85% | 1015 hPa | 0 mm | - | - | - |
| 1777913129 | 17.22° C | 85% | 1015 hPa | 0 mm | - | - | - |
| 1777912166 | 15.56° C | 88% | 1016 hPa | 0 mm | - | - | - |
| 1777911206 | 15.56° C | 89% | 1016 hPa | 0 mm | - | - | - |
| 1777909284 | 15.56° C | 92% | 1016 hPa | 0 mm | - | - | - |
| 1777908323 | 16.11° C | 92% | 1016 hPa | 0 mm | - | - | - |
| 1777907362 | 16.11° C | 91% | 1016 hPa | 0 mm | - | - | - |
| 1777906402 | 16.11° C | 93% | 1016 hPa | 0 mm | - | - | - |
| 1777905441 | 16.11° C | 95% | 1016 hPa | 0 mm | - | - | - |
| 1777904480 | 16.11° C | 10% | - | 0 mm | - | - | - |
| 1777903518 | 16.11° C | 10% | - | 0 mm | - | - | - |
| 1777902558 | 16.11° C | 10% | - | 0 mm | - | - | - |
| 1777901595 | 13.89° C | 10% | - | 0 mm | - | - | - |
* Rain latest hour (hover to see other rain measurements)
** Current wind speed in m/s (hover to see current wind gust speed)